createdAt,value
2022-10-22T00:01:37.850Z,0.33
2022-10-22T00:07:38.227Z,0.31
2022-10-22T00:13:37.952Z,0.10
2022-10-22T00:19:37.895Z,0.00
2022-10-22T00:25:37.885Z,0.09
2022-10-22T00:31:37.877Z,0.00
2022-10-22T00:37:37.873Z,0.02
2022-10-22T00:43:37.885Z,0.19
2022-10-22T00:49:37.877Z,0.20
2022-10-22T00:55:37.923Z,0.10
2022-10-22T01:01:37.920Z,0.04
2022-10-22T01:07:37.930Z,0.00
2022-10-22T01:13:37.941Z,0.14
2022-10-22T01:19:37.913Z,0.03
2022-10-22T01:25:37.938Z,0.09
2022-10-22T01:31:37.952Z,0.57
2022-10-22T01:37:38.156Z,0.75
2022-10-22T01:43:37.962Z,0.52
2022-10-22T01:49:37.983Z,0.18
2022-10-22T01:55:37.977Z,0.02
2022-10-22T02:01:38.001Z,0.21
2022-10-22T02:07:38.280Z,0.60
2022-10-22T02:13:38.023Z,0.57
2022-10-22T02:19:37.992Z,0.19
2022-10-22T02:25:38.001Z,0.50
2022-10-22T02:31:37.995Z,0.52
2022-10-22T02:37:37.984Z,0.03
2022-10-22T02:43:37.994Z,0.19
2022-10-22T02:49:38.030Z,0.00
2022-10-22T02:55:38.008Z,0.03
2022-10-22T03:01:38.021Z,0.38
2022-10-22T03:07:38.178Z,0.38
2022-10-22T03:13:38.061Z,0.43
2022-10-22T03:19:38.068Z,0.54
2022-10-22T03:25:38.029Z,0.54
2022-10-22T03:31:38.073Z,0.74
2022-10-22T03:37:38.291Z,0.19
2022-10-22T03:43:38.052Z,0.43
2022-10-22T03:49:38.080Z,0.33
2022-10-22T03:55:38.071Z,0.74
2022-10-22T04:01:38.100Z,0.26
2022-10-22T04:07:38.364Z,0.91
2022-10-22T04:13:38.065Z,1.54
2022-10-22T04:19:38.055Z,1.52
2022-10-22T04:25:38.060Z,0.77
2022-10-22T04:31:38.060Z,1.56
2022-10-22T04:37:38.350Z,0.33
2022-10-22T04:43:38.075Z,0.07
2022-10-22T04:49:38.109Z,0.00
2022-10-22T04:55:38.127Z,0.00
2022-10-22T05:01:41.739Z,0.00
2022-10-22T05:07:38.495Z,0.00
2022-10-22T05:13:38.105Z,0.00
2022-10-22T05:19:38.128Z,0.00
2022-10-22T05:25:38.119Z,0.00
2022-10-22T05:31:38.149Z,0.00
2022-10-22T05:37:38.363Z,0.05
2022-10-22T05:43:38.146Z,0.00
2022-10-22T05:49:38.172Z,0.00
2022-10-22T05:55:38.144Z,0.09
2022-10-22T06:01:38.188Z,0.00
2022-10-22T06:07:38.186Z,0.00
2022-10-22T06:13:38.200Z,0.00
2022-10-22T06:19:38.202Z,0.00
2022-10-22T06:25:38.198Z,0.00
2022-10-22T06:31:38.242Z,0.01
2022-10-22T06:37:38.590Z,0.10
2022-10-22T06:43:38.241Z,0.02
2022-10-22T06:49:38.202Z,0.00
2022-10-22T06:55:38.217Z,0.10
2022-10-22T07:01:38.264Z,0.15
2022-10-22T07:07:38.233Z,0.30
2022-10-22T07:13:38.235Z,0.05
2022-10-22T07:19:38.224Z,0.09
2022-10-22T07:25:38.244Z,0.35
2022-10-22T07:31:38.242Z,0.48
2022-10-22T07:37:38.506Z,0.56
2022-10-22T07:43:38.262Z,0.22
2022-10-22T07:49:38.277Z,0.28
2022-10-22T07:55:38.282Z,0.02
2022-10-22T08:01:38.328Z,0.11
2022-10-22T08:07:38.269Z,0.18
2022-10-22T08:13:42.749Z,0.12
2022-10-22T08:19:38.274Z,0.20
2022-10-22T08:25:38.277Z,0.05
2022-10-22T08:31:38.265Z,0.00
2022-10-22T08:37:38.436Z,0.03
2022-10-22T08:43:38.308Z,0.22
2022-10-22T08:49:41.230Z,0.31
2022-10-22T08:55:38.320Z,0.34
2022-10-22T09:01:38.304Z,0.26
2022-10-22T09:07:38.575Z,0.20
2022-10-22T09:13:38.329Z,0.17
2022-10-22T09:19:38.334Z,0.08
2022-10-22T09:25:38.310Z,0.02
2022-10-22T09:31:38.309Z,0.16
2022-10-22T09:37:38.364Z,0.25
2022-10-22T09:43:38.367Z,0.08
2022-10-22T09:49:38.331Z,0.00
2022-10-22T09:55:38.361Z,0.00
